Time;durP1;ratioP1;P1;durP2;ratioP2;P2;SDS_P1;SDS_P2;PMS_P1;PMS_P2;Temp;Humidity;BMP_temperature;BMP_pressure;BME280_temperature;BME280_humidity;BME280_pressure;Samples;Min_cycle;Max_cycle;Signal;HPM_P1;HPM_P2
2022/03/10 00:01:38;;;;;;;31.52;21.85;;;;;;;4.25;50.13;102274.28;4987677;28;20038;-83
2022/03/10 00:04:04;;;;;;;30.02;22.10;;;;;;;4.28;50.27;102282.78;4972061;28;20030;-83
2022/03/10 00:06:29;;;;;;;31.20;22.73;;;;;;;4.20;49.78;102265.06;4988716;28;20030;-82
2022/03/10 00:08:55;;;;;;;30.23;22.00;;;;;;;4.22;50.34;102279.50;4989100;28;20046;-82
2022/03/10 00:11:20;;;;;;;30.70;22.05;;;;;;;4.18;50.40;102277.91;4987340;28;20051;-82
2022/03/10 00:13:46;;;;;;;28.23;22.08;;;;;;;4.05;50.77;102261.22;4987664;28;20058;-83
2022/03/10 00:16:12;;;;;;;28.75;22.30;;;;;;;4.10;50.92;102269.63;4989277;28;20026;-82
2022/03/10 00:18:37;;;;;;;30.20;22.02;;;;;;;4.13;50.76;102284.97;4990408;28;20014;-82
2022/03/10 00:21:03;;;;;;;29.58;21.90;;;;;;;4.12;50.90;102283.25;4990003;28;20029;-83
2022/03/10 00:23:28;;;;;;;30.95;22.50;;;;;;;4.00;50.98;102273.38;4989193;28;20034;-82
2022/03/10 00:25:54;;;;;;;30.67;22.63;;;;;;;4.00;50.70;102269.06;4989267;28;20037;-83
2022/03/10 00:28:20;;;;;;;29.30;22.02;;;;;;;3.99;51.27;102281.97;4988513;28;20478;-82
2022/03/10 00:30:45;;;;;;;31.70;23.10;;;;;;;4.03;51.18;102283.56;4989560;28;20060;-82
2022/03/10 00:33:10;;;;;;;34.47;23.35;;;;;;;3.95;51.17;102275.22;4987856;28;20022;-84
2022/03/10 00:35:36;;;;;;;29.88;22.85;;;;;;;3.92;51.02;102281.31;4987743;28;20493;-83
2022/03/10 00:38:01;;;;;;;30.75;22.98;;;;;;;3.91;51.23;102279.63;4987670;28;20376;-83
2022/03/10 00:40:28;;;;;;;30.25;23.55;;;;;;;3.93;51.92;102289.84;4987478;28;20370;-82
2022/03/10 00:42:54;;;;;;;30.77;22.58;;;;;;;3.85;51.55;102279.00;4987622;28;20054;-82
2022/03/10 00:45:20;;;;;;;33.50;23.23;;;;;;;3.92;51.64;102285.59;4988838;28;20471;-82
2022/03/10 00:47:46;;;;;;;29.10;22.77;;;;;;;3.82;51.29;102273.94;4987404;28;20130;-83
2022/03/10 00:50:11;;;;;;;33.17;23.15;;;;;;;3.85;51.78;102284.13;4992131;28;20113;-82
2022/03/10 00:52:44;;;;;;;29.13;22.85;;;;;;;3.81;51.96;102282.53;4992695;28;20375;-82
2022/03/10 00:55:11;;;;;;;29.38;22.25;;;;;;;3.82;52.09;102289.34;4992835;28;20038;-82
2022/03/10 00:57:37;;;;;;;31.35;23.08;;;;;;;3.72;51.73;102286.19;4992600;28;20034;-82
2022/03/10 01:00:05;;;;;;;30.92;23.42;;;;;;;3.74;52.11;102292.13;4992668;28;20425;-82
2022/03/10 01:02:31;;;;;;;30.33;22.65;;;;;;;3.66;51.95;102274.38;4990007;28;20671;-82
2022/03/10 01:04:57;;;;;;;32.88;23.38;;;;;;;3.67;52.08;102278.66;4992360;28;20022;-82
2022/03/10 01:07:22;;;;;;;32.20;23.25;;;;;;;3.68;52.01;102282.06;4992031;28;20509;-83
2022/03/10 01:09:47;;;;;;;29.20;22.40;;;;;;;3.49;52.04;102263.78;4991938;28;20036;-82
2022/03/10 01:12:13;;;;;;;28.80;22.42;;;;;;;3.62;52.22;102283.06;4992358;28;20054;-82
2022/03/10 01:14:41;;;;;;;28.83;22.80;;;;;;;3.61;52.21;102286.53;4992626;28;20026;-81
2022/03/10 01:17:06;;;;;;;28.42;21.58;;;;;;;3.54;52.08;102285.00;4973102;28;20038;-82
2022/03/10 01:19:32;;;;;;;29.80;22.88;;;;;;;3.52;52.74;102276.53;4974714;28;20019;-81
2022/03/10 01:21:57;;;;;;;30.65;22.50;;;;;;;3.49;52.74;102280.88;4991421;28;20042;-81
2022/03/10 01:24:23;;;;;;;27.95;22.15;;;;;;;3.38;52.58;102270.94;4991371;28;20715;-81
2022/03/10 01:26:49;;;;;;;30.38;22.77;;;;;;;3.46;52.32;102286.97;4991344;28;20041;-82
2022/03/10 01:29:14;;;;;;;31.20;23.80;;;;;;;3.37;52.79;102270.09;4991848;28;20022;-82
2022/03/10 01:31:40;;;;;;;31.45;23.05;;;;;;;3.37;52.74;102282.06;4990069;28;20053;-82
2022/03/10 01:34:05;;;;;;;29.88;22.48;;;;;;;3.42;52.54;102290.47;4992544;28;20485;-82
2022/03/10 01:36:31;;;;;;;33.25;23.65;;;;;;;3.34;52.73;102277.88;4990680;28;20092;-82
2022/03/10 01:38:56;;;;;;;30.27;22.55;;;;;;;3.31;53.08;102277.13;4990367;28;20026;-82
2022/03/10 01:41:22;;;;;;;30.42;23.02;;;;;;;3.26;53.24;102269.56;4989677;28;20080;-82
2022/03/10 01:43:58;;;;;;;29.52;22.83;;;;;;;3.26;52.72;102273.84;4990412;28;20129;-82
2022/03/10 01:46:24;;;;;;;29.80;22.48;;;;;;;3.12;53.46;102266.53;4990967;28;20465;-81
2022/03/10 01:48:49;;;;;;;28.50;22.15;;;;;;;3.25;53.15;102282.41;4990071;28;20085;-81
2022/03/10 01:51:15;;;;;;;29.77;22.73;;;;;;;3.14;53.00;102277.59;4990042;28;20031;-81
2022/03/10 01:53:41;;;;;;;30.38;23.38;;;;;;;3.09;53.50;102272.56;4991749;28;20041;-82
2022/03/10 01:56:07;;;;;;;30.30;23.13;;;;;;;3.15;53.82;102285.25;4991554;28;20037;-82
2022/03/10 01:58:33;;;;;;;32.85;23.17;;;;;;;3.05;53.16;102273.56;4990814;28;20022;-81
2022/03/10 02:01:00;;;;;;;29.75;22.95;;;;;;;3.06;53.52;102275.25;4991196;28;20061;-82
2022/03/10 02:03:25;;;;;;;29.52;22.10;;;;;;;3.00;53.94;102267.72;4991699;28;20030;-81
2022/03/10 02:05:51;;;;;;;29.75;22.50;;;;;;;3.04;54.01;102269.31;4990679;28;20386;-81
2022/03/10 02:11:01;;;;;;;31.38;23.45;;;;;;;3.03;54.04;102272.75;4979523;28;20076;-82
2022/03/10 02:13:26;;;;;;;28.65;22.30;;;;;;;2.96;54.03;102260.97;4991277;28;20027;-82
2022/03/10 02:18:36;;;;;;;30.80;23.33;;;;;;;2.90;53.97;102271.41;4991417;28;20081;-82
2022/03/10 02:21:01;;;;;;;32.13;23.17;;;;;;;2.85;54.56;102263.00;4991277;28;20414;-82
2022/03/10 02:23:26;;;;;;;34.05;22.48;;;;;;;2.89;53.83;102269.72;4990705;28;20030;-82
2022/03/10 02:25:52;;;;;;;30.90;22.83;;;;;;;2.79;54.09;102263.16;4990517;28;20029;-82
2022/03/10 02:28:18;;;;;;;32.97;22.52;;;;;;;2.83;54.64;102269.88;4989530;28;20036;-83
2022/03/10 02:30:43;;;;;;;32.20;23.10;;;;;;;2.76;54.39;102263.25;4989352;28;20117;-81
2022/03/10 02:33:08;;;;;;;30.02;22.65;;;;;;;2.76;55.10;102258.13;4989914;28;20489;-81
2022/03/10 02:35:34;;;;;;;28.42;21.98;;;;;;;2.78;54.75;102266.59;4991209;28;20026;-81
2022/03/10 02:37:59;;;;;;;28.90;22.25;;;;;;;2.69;54.97;102261.69;4984406;28;20030;-81
2022/03/10 02:40:26;;;;;;;29.38;22.23;;;;;;;2.75;55.11;102271.78;4989969;28;20061;-81
2022/03/10 02:42:52;;;;;;;29.13;21.77;;;;;;;2.70;54.88;102273.66;4990455;28;20030;-83
2022/03/10 02:45:17;;;;;;;28.20;22.00;;;;;;;2.67;54.92;102270.28;4990391;28;20032;-83
2022/03/10 02:47:42;;;;;;;29.08;22.58;;;;;;;2.67;55.42;102275.38;4990117;28;20148;-82
2022/03/10 02:50:09;;;;;;;30.08;21.98;;;;;;;2.65;55.52;102284.84;4990096;28;20037;-81
2022/03/10 02:52:35;;;;;;;29.30;21.80;;;;;;;2.67;55.51;102279.69;4988608;28;20027;-82
2022/03/10 02:55:01;;;;;;;28.30;21.95;;;;;;;2.62;55.60;102279.78;4989478;28;20049;-80
2022/03/10 02:57:28;;;;;;;30.70;21.75;;;;;;;2.61;55.40;102274.72;4988008;28;20314;-82
2022/03/10 02:59:53;;;;;;;31.85;22.58;;;;;;;2.50;56.15;102257.03;4989785;28;20030;-82
2022/03/10 03:02:19;;;;;;;28.77;22.80;;;;;;;2.51;55.83;102268.13;4990004;28;20052;-82
2022/03/10 03:04:44;;;;;;;30.58;22.52;;;;;;;2.52;55.67;102270.63;4990496;28;20381;-82
2022/03/10 03:07:09;;;;;;;29.77;22.15;;;;;;;2.43;56.06;102265.78;4990299;28;20034;-82
2022/03/10 03:09:35;;;;;;;30.40;22.60;;;;;;;2.39;56.39;102264.16;4989435;28;20045;-82
2022/03/10 03:12:01;;;;;;;30.65;21.30;;;;;;;2.46;56.00;102270.78;4988774;28;20078;-80
2022/03/10 03:14:27;;;;;;;28.70;21.80;;;;;;;2.46;56.19;102281.03;4988165;28;20042;-82
2022/03/10 03:16:57;;;;;;;28.17;21.73;;;;;;;2.33;56.48;102282.22;4989319;28;20022;-82
2022/03/10 03:19:23;;;;;;;27.55;21.63;;;;;;;2.42;56.37;102287.13;4989253;28;20030;-82
2022/03/10 03:21:48;;;;;;;28.85;21.35;;;;;;;2.32;56.40;102272.88;4990287;28;20030;-82
2022/03/10 03:24:14;;;;;;;31.02;22.02;;;;;;;2.38;56.32;102300.88;4989563;28;20374;-81
2022/03/10 03:26:39;;;;;;;30.08;21.55;;;;;;;2.34;56.42;102283.91;4988500;28;20030;-82
2022/03/10 03:29:04;;;;;;;28.30;21.13;;;;;;;2.36;56.69;102294.97;4987862;28;20030;-82
2022/03/10 03:31:30;;;;;;;28.50;21.58;;;;;;;2.36;56.63;102295.81;4989404;28;20538;-82
2022/03/10 03:33:55;;;;;;;28.17;21.15;;;;;;;2.38;56.40;102293.19;4989800;28;20435;-82
2022/03/10 03:36:21;;;;;;;28.30;20.85;;;;;;;2.31;56.34;102286.56;4989210;28;20483;-82
2022/03/10 03:38:46;;;;;;;30.45;21.80;;;;;;;2.32;56.81;102293.34;4988810;28;20023;-82
2022/03/10 03:41:11;;;;;;;28.92;21.80;;;;;;;2.26;56.78;102294.34;4989276;28;20026;-81
2022/03/10 03:43:37;;;;;;;29.20;22.15;;;;;;;2.27;56.77;102295.16;4989459;28;20532;-82
2022/03/10 03:46:02;;;;;;;30.75;21.63;;;;;;;2.23;57.19;102293.56;4989441;28;20026;-82
2022/03/10 03:48:27;;;;;;;27.92;21.17;;;;;;;2.26;56.76;102303.72;4988915;28;20038;-82
2022/03/10 03:50:53;;;;;;;29.08;22.60;;;;;;;2.12;56.81;102278.44;4987877;28;20033;-82
2022/03/10 03:53:19;;;;;;;30.65;21.95;;;;;;;2.16;57.38;102297.13;4980282;28;20040;-82
2022/03/10 03:55:44;;;;;;;28.35;22.27;;;;;;;2.18;57.35;102301.34;4968699;28;20034;-82
2022/03/10 03:58:11;;;;;;;28.17;21.67;;;;;;;2.21;57.39;102305.56;4984608;28;20060;-81
2022/03/10 04:00:36;;;;;;;29.48;21.05;;;;;;;2.13;57.13;102306.56;4989206;28;20356;-81
2022/03/10 04:03:10;;;;;;;27.88;21.08;;;;;;;2.13;57.28;102309.13;4988810;28;20125;-82
2022/03/10 04:05:36;;;;;;;29.40;22.35;;;;;;;2.18;57.16;102315.84;4989225;28;20033;-82
2022/03/10 04:08:01;;;;;;;30.20;21.88;;;;;;;2.05;57.69;102305.88;4989004;28;20034;-82
2022/03/10 04:10:27;;;;;;;29.88;21.98;;;;;;;2.06;57.22;102302.44;4987107;28;20085;-82
2022/03/10 04:12:52;;;;;;;29.30;22.52;;;;;;;2.12;57.59;102311.72;4987189;28;20049;-82
2022/03/10 04:15:17;;;;;;;27.33;21.77;;;;;;;2.02;57.55;102295.75;4988888;28;20042;-82
2022/03/10 04:17:43;;;;;;;29.55;22.55;;;;;;;2.07;57.65;102304.16;4988916;28;20026;-82
2022/03/10 04:20:13;;;;;;;28.60;21.73;;;;;;;2.01;58.01;102314.53;4987447;28;20026;-81
2022/03/10 04:22:39;;;;;;;28.67;21.58;;;;;;;2.00;57.88;102307.69;4987781;28;20030;-82
2022/03/10 04:25:06;;;;;;;30.65;22.35;;;;;;;2.03;57.74;102317.88;4992085;28;20030;-82
2022/03/10 04:27:32;;;;;;;28.88;22.27;;;;;;;1.97;58.10;102310.34;4991245;28;20041;-82
2022/03/10 04:29:57;;;;;;;28.77;21.90;;;;;;;1.91;58.08;102301.97;4991398;28;20026;-81
2022/03/10 04:32:22;;;;;;;28.20;22.05;;;;;;;1.97;57.63;102318.03;4992757;28;20092;-82
2022/03/10 04:34:48;;;;;;;28.48;22.00;;;;;;;1.90;58.20;102311.38;4993225;28;20030;-82
2022/03/10 04:37:13;;;;;;;29.08;22.08;;;;;;;1.92;58.02;102324.94;4992554;28;20034;-82
2022/03/10 04:39:39;;;;;;;26.73;21.15;;;;;;;1.89;58.03;102324.16;4992695;28;20033;-82
2022/03/10 04:42:04;;;;;;;29.08;22.33;;;;;;;1.93;58.16;102320.69;4991056;28;20030;-82
2022/03/10 04:44:30;;;;;;;29.58;21.65;;;;;;;1.90;57.99;102321.59;4991379;28;20030;-82
2022/03/10 04:46:55;;;;;;;29.33;22.08;;;;;;;1.92;58.10;102319.84;4978439;28;20068;-82
2022/03/10 04:49:21;;;;;;;27.10;21.50;;;;;;;1.90;58.47;102321.59;4977724;28;20062;-81
2022/03/10 04:51:46;;;;;;;27.30;22.35;;;;;;;1.77;58.16;102317.59;4988669;28;20538;-82
2022/03/10 04:54:12;;;;;;;29.80;21.92;;;;;;;1.77;58.26;102309.91;4992253;28;20403;-81
2022/03/10 04:56:37;;;;;;;27.83;21.60;;;;;;;1.82;58.25;102333.69;4974913;28;20034;-82
2022/03/10 04:59:03;;;;;;;28.00;21.33;;;;;;;1.78;58.27;102327.81;4973888;28;20038;-82
2022/03/10 05:01:29;;;;;;;28.90;21.55;;;;;;;1.67;58.32;102303.34;4971114;28;20490;-82
2022/03/10 05:03:54;;;;;;;27.08;20.77;;;;;;;1.80;58.54;102330.34;4977208;28;20065;-82
2022/03/10 05:06:20;;;;;;;28.50;21.73;;;;;;;1.72;58.19;102309.16;4971844;28;20050;-82
2022/03/10 05:08:46;;;;;;;25.88;20.25;;;;;;;1.77;57.99;102309.91;4974999;28;20058;-82
2022/03/10 05:11:11;;;;;;;29.52;21.58;;;;;;;1.72;58.43;102302.38;4973352;28;20050;-82
2022/03/10 05:13:36;;;;;;;27.88;21.38;;;;;;;1.69;58.33;102304.13;4973851;28;20026;-81
2022/03/10 05:16:02;;;;;;;26.92;21.10;;;;;;;1.71;58.52;102310.06;4987209;28;20471;-81
2022/03/10 05:18:27;;;;;;;29.52;21.92;;;;;;;1.79;58.04;102323.53;4978314;28;20296;-82
2022/03/10 05:20:52;;;;;;;28.80;21.30;;;;;;;1.77;58.37;102320.16;4990372;28;20030;-82
2022/03/10 05:23:18;;;;;;;27.17;22.10;;;;;;;1.69;58.93;102316.94;4990631;28;20023;-81
2022/03/10 05:25:43;;;;;;;27.50;22.00;;;;;;;1.64;58.83;102308.50;4991879;28;20033;-82
2022/03/10 05:28:14;;;;;;;29.48;22.42;;;;;;;1.62;58.45;102305.16;4992500;28;20080;-82
2022/03/10 05:30:40;;;;;;;28.38;22.35;;;;;;;1.61;59.07;102309.41;4986004;28;20158;-81
2022/03/10 05:33:06;;;;;;;29.33;21.98;;;;;;;1.62;58.80;102311.09;4985915;28;20031;-81
2022/03/10 05:35:32;;;;;;;28.20;21.95;;;;;;;1.58;58.70;102305.19;4991150;28;20030;-81
2022/03/10 05:37:57;;;;;;;25.65;20.58;;;;;;;1.46;58.63;102287.53;4990115;28;20038;-81
2022/03/10 05:40:23;;;;;;;29.48;21.90;;;;;;;1.60;58.40;102318.78;4989123;28;20081;-81
2022/03/10 05:42:51;;;;;;;27.55;21.20;;;;;;;1.54;58.47;102313.78;4972378;28;20034;-81
2022/03/10 05:45:20;;;;;;;28.52;21.65;;;;;;;1.63;58.48;102319.59;4990140;28;20033;-81
2022/03/10 05:47:56;;;;;;;27.73;21.92;;;;;;;1.62;58.47;102325.59;4991139;28;20041;-81
2022/03/10 05:50:24;;;;;;;28.63;21.85;;;;;;;1.58;58.82;102325.66;4988768;28;20133;-82
2022/03/10 05:52:49;;;;;;;27.25;21.88;;;;;;;1.55;58.72;102315.50;5005762;28;20164;-81
2022/03/10 05:55:16;;;;;;;27.67;21.10;;;;;;;1.56;58.59;102327.41;4993060;28;20537;-81
2022/03/10 05:57:42;;;;;;;29.48;21.77;;;;;;;1.47;59.00;102319.91;4974463;28;20037;-82
2022/03/10 06:00:10;;;;;;;29.88;22.48;;;;;;;1.49;58.60;102315.63;4985607;28;20022;-82
2022/03/10 06:02:35;;;;;;;28.00;21.03;;;;;;;1.40;58.62;102304.72;4993028;28;20030;-81
2022/03/10 06:05:03;;;;;;;30.13;21.40;;;;;;;1.40;58.63;102305.56;4992182;28;20038;-81
2022/03/10 06:07:29;;;;;;;28.83;21.55;;;;;;;1.49;59.46;102320.75;4993445;28;20033;-81
2022/03/10 06:09:55;;;;;;;34.17;21.77;;;;;;;1.49;59.38;102330.97;4993912;28;20106;-83
2022/03/10 06:12:21;;;;;;;29.00;20.73;;;;;;;1.35;58.95;102321.88;4994012;28;20060;-83
2022/03/10 06:14:46;;;;;;;27.30;21.25;;;;;;;1.38;58.92;102327.78;4994469;28;20042;-81
2022/03/10 06:17:12;;;;;;;30.15;22.45;;;;;;;1.42;58.99;102334.47;4993575;28;20038;-82
2022/03/10 06:19:38;;;;;;;31.42;22.00;;;;;;;1.45;58.33;102328.50;4991375;28;20526;-82
2022/03/10 06:22:03;;;;;;;28.20;21.73;;;;;;;1.40;58.66;102326.00;4989947;28;20080;-81
2022/03/10 06:24:28;;;;;;;28.58;21.67;;;;;;;1.31;58.74;102318.50;4988674;28;20385;-81
2022/03/10 06:26:54;;;;;;;27.13;20.25;;;;;;;1.42;58.67;102339.59;4990247;28;20490;-80
2022/03/10 06:29:19;;;;;;;28.92;21.13;;;;;;;1.27;58.55;102314.34;4990127;28;20042;-81
2022/03/10 06:31:45;;;;;;;27.48;20.80;;;;;;;1.33;58.93;102324.47;4988725;28;20026;-81
2022/03/10 06:34:10;;;;;;;29.67;22.05;;;;;;;1.35;59.07;102338.03;4989794;28;20027;-80
2022/03/10 06:36:35;;;;;;;28.42;21.48;;;;;;;1.38;58.81;102335.44;4989331;28;20418;-81
2022/03/10 06:39:01;;;;;;;27.92;21.17;;;;;;;1.39;59.19;102349.91;4990310;28;20030;-79
2022/03/10 06:41:26;;;;;;;29.58;22.25;;;;;;;1.44;58.89;102347.25;4989613;28;20069;-81
2022/03/10 06:43:52;;;;;;;29.88;22.25;;;;;;;1.32;59.03;102336.41;4988607;28;20063;-81
2022/03/10 06:46:17;;;;;;;29.98;22.52;;;;;;;1.41;58.61;102353.25;4988780;28;20038;-80
2022/03/10 06:48:42;;;;;;;29.15;22.58;;;;;;;1.40;59.19;102356.69;4989636;28;20109;-81
2022/03/10 06:51:08;;;;;;;30.45;22.35;;;;;;;1.36;58.89;102349.94;4989402;28;20101;-83
2022/03/10 06:53:33;;;;;;;29.08;22.15;;;;;;;1.44;59.26;102363.44;4989088;28;20073;-80
2022/03/10 06:55:59;;;;;;;30.77;22.35;;;;;;;1.45;59.38;102360.00;4990300;28;20362;-81
2022/03/10 06:58:24;;;;;;;29.70;21.85;;;;;;;1.45;59.14;102360.00;4989512;28;20022;-81
2022/03/10 07:00:50;;;;;;;29.40;21.40;;;;;;;1.50;59.11;102363.31;4989855;28;20117;-81
2022/03/10 07:03:15;;;;;;;31.88;22.65;;;;;;;1.36;59.67;102347.38;4982850;28;20101;-80
2022/03/10 07:05:41;;;;;;;28.92;22.25;;;;;;;1.42;59.45;102344.72;4970419;28;20027;-81
2022/03/10 07:08:07;;;;;;;28.77;21.60;;;;;;;1.54;59.34;102359.81;4970912;28;20104;-81
2022/03/10 07:10:32;;;;;;;29.73;22.40;;;;;;;1.54;59.10;102359.81;4988636;28;20108;-81
2022/03/10 07:12:58;;;;;;;29.27;21.67;;;;;;;1.43;59.28;102328.50;4989069;28;20610;-80
2022/03/10 07:15:23;;;;;;;29.23;22.27;;;;;;;1.60;59.22;102359.69;4988961;28;20120;-80
2022/03/10 07:17:49;;;;;;;27.65;21.67;;;;;;;1.62;59.25;102358.84;4984609;28;20494;-78
2022/03/10 07:20:14;;;;;;;28.25;22.08;;;;;;;1.59;59.58;102344.38;4973703;28;20114;-79
2022/03/10 07:22:40;;;;;;;30.80;21.25;;;;;;;1.68;59.59;102356.16;4969906;28;20356;-78
2022/03/10 07:25:08;;;;;;;30.88;22.25;;;;;;;1.73;60.25;102364.59;4969797;28;20460;-79
2022/03/10 07:27:34;;;;;;;27.80;21.95;;;;;;;1.75;60.17;102360.28;4984792;28;20109;-80
2022/03/10 07:29:59;;;;;;;29.25;22.40;;;;;;;1.82;60.53;102361.84;4989222;28;20152;-80
2022/03/10 07:32:26;;;;;;;30.48;22.27;;;;;;;1.81;60.45;102342.25;4987778;28;20125;-80
2022/03/10 07:34:51;;;;;;;29.77;21.20;;;;;;;1.91;60.47;102358.25;4988470;28;20018;-80
2022/03/10 07:37:17;;;;;;;29.13;20.95;;;;;;;1.96;60.66;102357.28;4988708;28;20164;-80
2022/03/10 07:39:42;;;;;;;28.27;21.58;;;;;;;2.04;60.14;102355.38;4988465;28;20022;-81
2022/03/10 07:42:08;;;;;;;29.42;22.05;;;;;;;2.08;60.34;102351.91;4987081;28;20104;-79
2022/03/10 07:44:34;;;;;;;28.50;21.52;;;;;;;2.16;59.69;102353.44;4988033;28;20038;-81
2022/03/10 07:46:59;;;;;;;28.58;22.33;;;;;;;2.15;60.01;102346.66;4988196;28;20034;-81
2022/03/10 07:49:24;;;;;;;31.73;22.30;;;;;;;2.23;60.28;102344.75;4988956;28;20038;-81
2022/03/10 07:51:50;;;;;;;28.92;21.58;;;;;;;2.31;60.56;102343.72;4987089;28;20377;-80
2022/03/10 07:54:15;;;;;;;27.10;21.23;;;;;;;2.50;60.08;102354.34;4988478;28;20022;-81
2022/03/10 07:56:41;;;;;;;29.52;21.90;;;;;;;2.59;59.81;102361.84;4988239;28;20061;-80
2022/03/10 07:59:06;;;;;;;30.27;21.83;;;;;;;2.70;59.72;102355.63;4987622;28;20026;-80
2022/03/10 08:01:31;;;;;;;30.77;21.70;;;;;;;2.70;59.69;102345.38;4987888;28;20391;-81
2022/03/10 08:03:57;;;;;;;28.75;21.52;;;;;;;2.87;59.20;102345.81;4986542;28;20068;-80
2022/03/10 08:06:24;;;;;;;32.30;22.23;;;;;;;2.97;59.02;102346.41;4987993;28;20042;-80
2022/03/10 08:08:50;;;;;;;29.83;21.50;;;;;;;3.03;59.72;102344.50;4988129;28;20030;-78
2022/03/10 08:11:15;;;;;;;27.52;21.63;;;;;;;3.17;59.02;102352.69;4987723;28;20089;-80
2022/03/10 08:13:40;;;;;;;30.58;21.73;;;;;;;3.22;58.67;102344.06;4988806;28;20046;-81
2022/03/10 08:16:06;;;;;;;30.02;21.10;;;;;;;3.31;58.79;102346.34;4987922;28;20367;-76
2022/03/10 08:18:31;;;;;;;27.63;21.05;;;;;;;3.40;58.95;102351.25;4988741;28;20073;-78
2022/03/10 08:20:58;;;;;;;27.88;20.75;;;;;;;3.49;58.10;102358.69;4988232;28;20154;-79
2022/03/10 08:23:24;;;;;;;27.08;20.73;;;;;;;3.62;58.15;102354.91;4988293;28;20035;-78
2022/03/10 08:25:50;;;;;;;29.00;20.80;;;;;;;3.70;57.97;102352.94;4976612;28;20368;-81
2022/03/10 08:28:16;;;;;;;28.45;21.38;;;;;;;3.84;57.84;102360.28;4974800;28;20446;-81
2022/03/10 08:30:41;;;;;;;31.10;21.08;;;;;;;3.89;57.60;102357.56;4986375;28;20022;-81
2022/03/10 08:33:07;;;;;;;29.52;21.50;;;;;;;4.02;57.47;102346.06;4988480;28;20035;-82
2022/03/10 08:35:32;;;;;;;28.90;21.83;;;;;;;4.12;57.64;102344.88;4985083;28;20030;-81
2022/03/10 08:37:58;;;;;;;28.88;21.23;;;;;;;4.25;57.36;102351.34;4968305;28;20029;-81
2022/03/10 08:40:23;;;;;;;28.63;21.17;;;;;;;4.37;56.98;102349.28;4967706;28;20062;-82
2022/03/10 08:42:51;;;;;;;31.10;21.30;;;;;;;4.47;56.64;102350.66;4978770;28;20034;-81
2022/03/10 08:45:17;;;;;;;30.65;21.85;;;;;;;4.58;55.90;102343.44;4974752;28;20022;-81
2022/03/10 08:47:43;;;;;;;28.17;21.33;;;;;;;4.59;56.36;102329.72;4967508;28;20050;-80
2022/03/10 08:50:10;;;;;;;30.73;20.73;;;;;;;4.69;55.96;102330.25;4967638;28;20098;-80
2022/03/10 08:52:36;;;;;;;29.88;21.88;;;;;;;4.91;55.31;102332.94;4968785;28;20411;-79
2022/03/10 08:55:03;;;;;;;31.10;21.33;;;;;;;4.94;56.09;102309.72;4967524;28;20066;-82
2022/03/10 08:57:29;;;;;;;28.65;21.08;;;;;;;5.17;55.54;102332.91;4986690;28;20026;-82
2022/03/10 08:59:54;;;;;;;31.52;22.30;;;;;;;5.18;55.95;102321.72;4986313;28;20026;-81
2022/03/10 09:02:19;;;;;;;28.92;21.55;;;;;;;5.34;55.87;102319.47;4987502;28;20027;-83
2022/03/10 09:04:45;;;;;;;30.25;21.42;;;;;;;5.44;55.44;102319.94;4987836;28;20038;-82
2022/03/10 09:07:13;;;;;;;32.10;21.65;;;;;;;5.58;55.05;102330.59;4987952;28;20501;-82
2022/03/10 09:09:39;;;;;;;30.48;22.00;;;;;;;5.68;55.21;102324.22;4989115;28;20070;-82
2022/03/10 09:12:04;;;;;;;31.45;22.15;;;;;;;5.78;55.92;102309.25;4991221;28;20074;-82
2022/03/10 09:14:30;;;;;;;31.38;21.42;;;;;;;5.93;54.39;102319.00;4991099;28;20026;-81
2022/03/10 09:16:56;;;;;;;30.92;22.35;;;;;;;6.02;54.60;102317.78;4989741;28;20037;-81
2022/03/10 09:19:23;;;;;;;29.70;22.02;;;;;;;6.13;54.86;102306.19;4989666;28;20019;-83
2022/03/10 09:21:48;;;;;;;29.88;22.70;;;;;;;6.25;54.07;102310.03;4991214;28;20072;-82
2022/03/10 09:24:13;;;;;;;30.85;23.05;;;;;;;6.33;53.95;102302.00;4991336;28;20042;-81
2022/03/10 09:26:39;;;;;;;32.15;23.60;;;;;;;6.49;54.27;102304.81;4991322;28;20057;-82
2022/03/10 09:29:05;;;;;;;31.88;22.25;;;;;;;6.60;54.29;102294.88;4990876;28;20526;-82
2022/03/10 09:31:34;;;;;;;31.02;23.05;;;;;;;6.78;54.31;102304.44;4988862;28;20080;-82
2022/03/10 09:34:04;;;;;;;27.90;22.40;;;;;;;6.78;53.42;102288.97;4990151;28;20480;-82
2022/03/10 09:36:30;;;;;;;30.15;22.80;;;;;;;7.00;54.26;102304.38;4988818;28;20030;-82
2022/03/10 09:38:55;;;;;;;34.95;23.83;;;;;;;7.09;53.64;102308.28;4991276;28;20164;-82
2022/03/10 09:41:21;;;;;;;30.80;22.40;;;;;;;7.24;53.50;102307.63;4989109;28;20033;-81
2022/03/10 09:43:47;;;;;;;30.60;23.60;;;;;;;7.31;52.82;102287.53;4990941;28;20022;-82
2022/03/10 09:46:12;;;;;;;33.72;23.55;;;;;;;7.50;53.04;102293.53;4990461;28;20060;-82
2022/03/10 09:48:39;;;;;;;32.25;23.42;;;;;;;7.58;52.70;102278.56;4990855;28;20080;-83
2022/03/10 09:51:05;;;;;;;30.27;22.08;;;;;;;7.80;53.53;102288.72;4990408;28;20382;-83
2022/03/10 09:53:31;;;;;;;32.00;23.55;;;;;;;7.94;53.40;102283.75;4989210;28;20038;-83
2022/03/10 09:55:57;;;;;;;31.52;23.38;;;;;;;7.99;51.83;102263.69;4990438;28;20027;-83
2022/03/10 09:58:23;;;;;;;32.75;23.65;;;;;;;8.16;51.25;102277.56;4989707;28;20027;-83
2022/03/10 10:00:48;;;;;;;32.38;22.42;;;;;;;8.31;50.04;102281.13;4988924;28;20026;-83
2022/03/10 10:03:13;;;;;;;30.67;22.13;;;;;;;8.45;49.70;102286.50;4990193;28;20478;-81
2022/03/10 10:05:40;;;;;;;33.35;22.50;;;;;;;8.57;50.26;102287.66;4990285;28;20042;-81
2022/03/10 10:08:09;;;;;;;34.83;25.50;;;;;;;8.73;50.51;102294.56;4989252;28;20022;-78
2022/03/10 10:10:39;;;;;;;33.22;23.17;;;;;;;8.83;50.65;102279.44;4990178;28;20149;-81
2022/03/10 10:13:06;;;;;;;32.15;23.52;;;;;;;8.87;49.83;102280.94;4990162;28;20050;-81
2022/03/10 10:15:35;;;;;;;31.23;22.23;;;;;;;9.02;50.07;102280.16;4989508;28;20034;-82
2022/03/10 10:18:01;;;;;;;;;;;;;;;9.14;51.32;102288.19;4991054;28;20030;-81
2022/03/10 10:20:31;;;;;;;30.80;22.02;;;;;;;9.23;48.46;102277.34;4990231;28;19936;-82
2022/03/10 10:22:56;;;;;;;31.00;22.50;;;;;;;9.25;48.14;102271.19;4988748;28;20105;-82
2022/03/10 10:25:23;;;;;;;30.67;23.05;;;;;;;9.42;47.99;102280.66;4988914;28;20180;-83
2022/03/10 10:27:48;;;;;;;32.17;22.85;;;;;;;9.47;48.04;102264.88;4979936;28;20128;-82
2022/03/10 10:30:14;;;;;;;30.77;22.00;;;;;;;9.66;48.33;102269.88;5003196;28;20070;-82
2022/03/10 10:32:43;;;;;;;32.72;22.33;;;;;;;9.75;47.90;102270.22;4989907;28;20026;-81
2022/03/10 10:35:15;;;;;;;32.75;23.10;;;;;;;9.73;47.97;102271.22;4989677;28;20061;-81
2022/03/10 10:37:48;;;;;;;31.88;22.55;;;;;;;9.82;47.43;102260.34;4989959;28;20030;-83
2022/03/10 10:40:22;;;;;;;35.45;23.75;;;;;;;10.03;47.89;102266.91;4989293;28;20209;-82
2022/03/10 10:42:47;;;;;;;31.05;22.33;;;;;;;10.13;48.17;102258.63;4988939;28;20482;-83
2022/03/10 10:45:29;;;;;;;32.10;22.70;;;;;;;10.28;48.85;102252.59;4989990;28;20217;-82
2022/03/10 10:48:05;;;;;;;32.78;22.50;;;;;;;10.42;47.44;102255.22;4981176;28;20027;-85
2022/03/10 10:50:37;;;;;;;31.63;21.83;;;;;;;10.45;47.06;102239.50;4978587;28;20030;-82
2022/03/10 10:53:03;;;;;;;30.00;21.80;;;;;;;10.60;47.16;102248.94;4969201;28;20040;-81
2022/03/10 10:55:37;;;;;;;32.45;22.38;;;;;;;10.68;46.42;102245.09;4968305;28;20031;-86
2022/03/10 10:58:06;;;;;;;32.45;22.67;;;;;;;10.80;46.62;102259.94;4970841;28;20034;-84
2022/03/10 11:00:43;;;;;;;35.35;24.08;;;;;;;10.87;47.23;102243.88;4970374;28;20026;-83
2022/03/10 11:03:23;;;;;;;30.55;21.00;;;;;;;10.89;46.73;102242.03;4982637;28;20250;-83
2022/03/10 11:05:49;;;;;;;29.15;20.40;;;;;;;11.00;46.01;102246.56;4968970;28;20019;-83
2022/03/10 11:08:17;;;;;;;29.08;20.02;;;;;;;11.12;45.95;102250.19;4971612;28;20042;-83
2022/03/10 11:10:43;;;;;;;28.23;19.98;;;;;;;11.22;46.01;102250.47;4972731;28;20034;-84
2022/03/10 11:13:08;;;;;;;32.45;22.08;;;;;;;11.24;45.57;102248.59;4983431;28;20034;-83
2022/03/10 11:15:34;;;;;;;30.30;21.58;;;;;;;11.35;45.34;102246.16;4988302;28;20189;-83
2022/03/10 11:18:03;;;;;;;32.03;22.13;;;;;;;11.46;46.23;102246.31;4988824;28;20486;-83